Time;durP1;ratioP1;P1;durP2;ratioP2;P2;SDS_P1;SDS_P2;PMS_P1;PMS_P2;Temp;Humidity;BMP_temperature;BMP_pressure;BME280_temperature;BME280_humidity;BME280_pressure;Samples;Min_cycle;Max_cycle;Signal;HPM_P1;HPM_P2
2023/11/23 00:00:13;;;;;;;;;;;0.80;99.90;;;-0.47;100.00;98907.25;5006073;28;1562;-74
2023/11/23 00:02:41;;;;;;;;;;;0.70;99.90;;;-0.61;100.00;98904.41;5000434;28;1910;-73
2023/11/23 00:05:08;;;;;;;;;;;0.70;99.90;;;-0.62;100.00;98907.75;5001238;28;1518;-75
2023/11/23 00:07:37;;;;;;;;;;;0.70;99.90;;;-0.47;100.00;98913.22;5022276;28;1441;-73
2023/11/23 00:10:05;;;;;;;;;;;0.70;99.90;;;-0.56;100.00;98918.13;5001054;28;1629;-73
2023/11/23 00:12:32;;;;;;;;;;;0.70;99.90;;;-0.60;100.00;98920.56;4990256;28;1537;-75
2023/11/23 00:15:00;;;;;;;;;;;0.70;99.90;;;-0.65;100.00;98923.84;4988550;28;1563;-73
2023/11/23 00:17:29;;;;;;;;;;;0.60;99.90;;;-0.48;100.00;98916.63;5020323;28;1831;-72
2023/11/23 00:19:58;;;;;;;;;;;0.70;99.90;;;-0.60;100.00;98923.09;5020002;28;1622;-72
2023/11/23 00:22:26;;;;;;;;;;;0.70;99.90;;;-0.61;100.00;98919.69;5020010;28;1910;-73
2023/11/23 00:24:56;;;;;;;;;;;0.60;99.90;;;-0.71;100.00;98913.53;5006441;28;1692;-74
2023/11/23 00:27:23;;;;;;;;;;;0.60;99.90;;;-0.70;100.00;98905.03;5019773;28;1463;-75
2023/11/23 00:29:53;;;;;;;;;;;0.60;99.90;;;-0.72;100.00;98900.75;5017575;28;1904;-73
2023/11/23 00:32:20;;;;;;;;;;;0.60;99.90;;;-0.75;100.00;98881.13;5006513;28;1725;-72
2023/11/23 00:34:47;;;;;;;;;;;0.60;99.90;;;-0.82;100.00;98876.72;5006744;28;1423;-75
2023/11/23 00:37:14;;;;;;;;;;;0.60;99.90;;;-0.70;100.00;98876.16;5023521;28;1462;-73
2023/11/23 00:39:42;;;;;;;;;;;0.50;99.90;;;-0.72;100.00;98882.88;5022884;28;1398;-73
2023/11/23 00:42:09;;;;;;;;;;;0.60;99.90;;;-0.77;100.00;98882.78;5021901;28;1972;-73
2023/11/23 00:44:37;;;;;;;;;;;0.60;99.90;;;-0.77;100.00;98882.78;5006268;28;1517;-74
2023/11/23 00:47:04;;;;;;;;;;;0.60;99.90;;;-0.72;100.00;98883.75;5020499;28;1515;-73
2023/11/23 00:49:33;;;;;;;;;;;0.50;99.90;;;-0.76;100.00;98888.75;5006644;28;1559;-74
2023/11/23 00:52:01;;;;;;;;;;;0.50;99.90;;;-0.70;100.00;98894.00;5002390;28;1458;-73
2023/11/23 00:54:28;;;;;;;;;;;0.50;99.90;;;-0.73;100.00;98899.88;5022751;28;2009;-74
2023/11/23 00:56:55;;;;;;;;;;;0.50;99.90;;;-0.74;100.00;98887.09;4985809;28;1603;-72
2023/11/23 00:59:21;;;;;;;;;;;0.60;99.90;;;-0.86;100.00;98890.22;5021452;28;1539;-76
2023/11/23 01:01:48;;;;;;;;;;;0.50;99.90;;;-0.82;100.00;98891.13;5022768;28;1987;-73
2023/11/23 01:04:15;;;;;;;;;;;0.50;99.90;;;-0.83;100.00;98881.78;5005308;28;1468;-72
2023/11/23 01:06:42;;;;;;;;;;;0.50;99.90;;;-0.83;100.00;98891.97;5022187;28;1580;-73
2023/11/23 01:09:09;;;;;;;;;;;0.50;99.90;;;-0.94;100.00;98890.00;5020009;28;1761;-73
2023/11/23 01:11:37;;;;;;;;;;;0.40;99.90;;;-1.09;100.00;98890.50;5020069;28;1529;-76
2023/11/23 01:14:04;;;;;;;;;;;0.30;99.90;;;-0.97;100.00;98884.00;5021108;28;1454;-73
2023/11/23 01:16:32;;;;;;;;;;;0.30;99.90;;;-1.08;100.00;98876.94;5021732;28;1489;-73
2023/11/23 01:18:59;;;;;;;;;;;0.20;99.90;;;-1.04;100.00;98880.44;5019824;28;1556;-73
2023/11/23 01:21:26;;;;;;;;;;;0.20;99.90;;;-1.17;100.00;98878.41;5021139;28;1926;-73
2023/11/23 01:23:53;;;;;;;;;;;0.20;99.90;;;-1.18;100.00;98879.25;5024572;28;1505;-73
2023/11/23 01:26:20;;;;;;;;;;;0.20;99.90;;;-1.13;100.00;98878.50;5007491;28;1558;-73
2023/11/23 01:28:46;;;;;;;;;;;0.20;99.90;;;-1.21;100.00;98879.16;5018080;28;1552;-74
2023/11/23 01:31:14;;;;;;;;;;;0.10;99.90;;;-1.23;100.00;98875.69;5022384;28;1568;-73
2023/11/23 01:33:40;;;;;;;;;;;0.10;99.90;;;-1.19;100.00;98873.25;5002892;28;1577;-73
2023/11/23 01:36:08;;;;;;;;;;;0.10;99.90;;;-1.13;100.00;98872.56;5025604;28;1409;-73
2023/11/23 01:38:35;;;;;;;;;;;0.20;99.90;;;-1.09;100.00;98869.28;5003360;28;1573;-73
2023/11/23 01:41:03;;;;;;;;;;;0.20;99.90;;;-1.21;100.00;98863.84;5001227;28;1935;-74
2023/11/23 01:43:31;;;;;;;;;;;0.10;99.90;;;-1.25;100.00;98865.50;5021288;28;1452;-73
2023/11/23 01:45:58;;;;;;;;;;;0.10;99.90;;;-1.13;100.00;98853.03;5006331;28;1454;-73
2023/11/23 01:48:26;;;;;;;;;;;0.10;99.90;;;-1.28;100.00;98857.75;5003137;28;1466;-73
2023/11/23 01:50:53;;;;;;;;;;;0.10;99.90;;;-1.24;100.00;98866.34;5019058;28;1689;-72
2023/11/23 01:53:20;;;;;;;;;;;0.10;99.90;;;-1.20;100.00;98873.25;5013509;28;1665;-73
2023/11/23 01:55:47;;;;;;;;;;;0.10;99.90;;;-1.32;100.00;98866.16;5022479;28;1441;-75
2023/11/23 01:58:16;;;;;;;;;;;0.00;99.90;;;-1.30;100.00;98856.84;5003514;28;1411;-73
2023/11/23 02:00:43;;;;;;;;;;;0.00;99.90;;;-1.29;100.00;98866.22;5001859;28;1634;-72
2023/11/23 02:03:11;;;;;;;;;;;0.00;99.90;;;-1.25;100.00;98870.59;5005450;28;1914;-73
2023/11/23 02:05:38;;;;;;;;;;;0.00;99.90;;;-1.32;100.00;98866.16;5002676;28;1595;-74
2023/11/23 02:08:05;;;;;;;;;;;0.00;99.90;;;-1.37;100.00;98872.81;5007074;28;1435;-72
2023/11/23 02:10:32;;;;;;;;;;;0.00;99.90;;;-1.29;100.00;98867.09;5019725;28;1932;-74
2023/11/23 02:12:59;;;;;;;;;;;-0.10;99.90;;;-1.23;100.00;98868.94;5002147;28;1507;-72
2023/11/23 02:15:26;;;;;;;;;;;-0.10;99.90;;;-1.37;100.00;98878.78;5006825;28;1493;-73
2023/11/23 02:18:05;;;;;;;;;;;-0.10;99.90;;;-1.41;100.00;98878.66;5018277;28;1635;-72
2023/11/23 02:20:32;;;;;;;;;;;-0.10;99.90;;;-1.43;100.00;98863.34;5020011;28;1564;-74
2023/11/23 02:22:59;;;;;;;;;;;-0.10;99.90;;;-1.42;100.00;98869.28;5003292;28;1907;-73
2023/11/23 02:25:27;;;;;;;;;;;-0.20;99.90;;;-1.41;100.00;98856.59;5021516;28;1544;-73
2023/11/23 02:27:54;;;;;;;;;;;-0.20;99.90;;;-1.27;100.00;98859.50;5017614;28;1640;-73
2023/11/23 02:30:24;;;;;;;;;;;-0.20;99.90;;;-1.28;100.00;98862.84;5004379;28;1654;-76
2023/11/23 02:32:51;;;;;;;;;;;-0.30;99.90;;;-1.32;100.00;98859.38;5016162;28;1641;-73
2023/11/23 02:35:19;;;;;;;;;;;-0.20;99.90;;;-1.39;100.00;98854.06;5020135;28;1497;-72
2023/11/23 02:37:46;;;;;;;;;;;-0.30;99.90;;;-1.29;100.00;98853.50;5020602;28;1547;-75
2023/11/23 02:40:13;;;;;;;;;;;-0.30;99.90;;;-1.42;100.00;98849.75;5003587;28;1704;-73
2023/11/23 02:42:40;;;;;;;;;;;-0.20;99.90;;;-1.36;100.00;98856.72;4998634;28;1898;-74
2023/11/23 02:45:11;;;;;;;;;;;-0.20;99.90;;;-1.44;100.00;98832.72;5005516;28;1582;-72
2023/11/23 02:47:39;;;;;;;;;;;-0.20;99.90;;;-1.34;100.00;98833.00;5021617;28;1630;-72
2023/11/23 02:50:06;;;;;;;;;;;-0.20;99.90;;;-1.27;100.00;98834.00;4991220;28;1505;-74
2023/11/23 02:52:32;;;;;;;;;;;-0.30;99.90;;;-1.24;100.00;98836.63;5003143;28;1484;-73
2023/11/23 02:54:59;;;;;;;;;;;-0.30;99.90;;;-1.32;100.00;98830.50;5003853;28;1610;-74
2023/11/23 02:57:26;;;;;;;;;;;-0.30;99.90;;;-1.39;100.00;98837.13;5020446;28;1405;-74
2023/11/23 02:59:53;;;;;;;;;;;-0.20;99.90;;;-1.32;100.00;98833.91;5002550;28;1706;-74
2023/11/23 03:02:20;;;;;;;;;;;-0.20;99.90;;;-1.27;100.00;98832.31;5019513;28;1910;-73
2023/11/23 03:04:47;;;;;;;;;;;-0.10;99.90;;;-1.32;100.00;98833.91;5021123;28;1682;-75
2023/11/23 03:07:14;;;;;;;;;;;-0.10;99.90;;;-1.23;100.00;98835.81;5002678;28;1736;-72
2023/11/23 03:09:41;;;;;;;;;;;-0.10;99.90;;;-1.32;100.00;98833.91;5001881;28;1529;-74
2023/11/23 03:12:08;;;;;;;;;;;-0.10;99.90;;;-1.39;100.00;98829.47;5018010;28;1958;-73
2023/11/23 03:14:38;;;;;;;;;;;-0.10;99.90;;;-1.26;100.00;98836.56;5014537;28;1701;-73
2023/11/23 03:17:05;;;;;;;;;;;-0.10;99.90;;;-1.32;100.00;98830.50;5002445;28;1548;-73
2023/11/23 03:19:32;;;;;;;;;;;-0.10;99.90;;;-1.33;100.00;98827.06;4989025;28;1601;-74
2023/11/23 03:21:59;;;;;;;;;;;-0.10;99.90;;;-1.35;100.00;98830.41;5016480;28;1906;-73
2023/11/23 03:24:26;;;;;;;;;;;-0.10;99.90;;;-1.17;100.00;98833.41;5019450;28;1524;-75
2023/11/23 03:26:53;;;;;;;;;;;-0.20;99.90;;;-1.39;100.00;98834.56;5018634;28;1631;-73
2023/11/23 03:29:20;;;;;;;;;;;-0.20;99.90;;;-1.39;100.00;98826.94;5000896;28;1652;-74
2023/11/23 03:31:47;;;;;;;;;;;-0.20;99.90;;;-1.37;100.00;98832.06;5019140;28;1569;-73
2023/11/23 03:34:14;;;;;;;;;;;-0.20;99.90;;;-1.40;100.00;98825.19;5014822;28;1635;-73
2023/11/23 03:36:43;;;;;;;;;;;-0.20;99.90;;;-1.36;100.00;98828.69;5019602;28;1513;-73
2023/11/23 03:39:12;;;;;;;;;;;-0.10;99.90;;;-1.23;100.00;98829.84;5003575;28;1685;-75
2023/11/23 03:41:39;;;;;;;;;;;-0.20;99.90;;;-1.38;100.00;98820.16;5017738;28;1907;-74
2023/11/23 03:44:06;;;;;;;;;;;-0.20;99.90;;;-1.30;100.00;98826.28;5005642;28;1541;-73
2023/11/23 03:46:32;;;;;;;;;;;-0.20;99.90;;;-1.40;100.00;98824.34;5006450;28;1724;-73
2023/11/23 03:48:59;;;;;;;;;;;-0.20;99.90;;;-1.45;100.00;98826.78;5018872;28;1743;-72
2023/11/23 03:51:26;;;;;;;;;;;-0.10;99.90;;;-1.29;100.00;98826.31;5017621;28;1444;-74
2023/11/23 03:53:53;;;;;;;;;;;-0.10;99.90;;;-1.23;100.00;98828.19;5019815;28;1603;-74
2023/11/23 03:56:21;;;;;;;;;;;0.00;99.90;;;-1.10;100.00;98824.22;5019420;28;1568;-73
2023/11/23 03:58:47;;;;;;;;;;;0.10;99.90;;;-1.01;100.00;98823.56;5003664;28;1363;-73
2023/11/23 04:01:14;;;;;;;;;;;0.10;99.90;;;-0.89;100.00;98818.75;5018016;28;1529;-73
2023/11/23 04:03:44;;;;;;;;;;;0.20;99.90;;;-0.67;100.00;98820.97;5002506;28;1914;-73
2023/11/23 04:06:12;;;;;;;;;;;0.10;99.90;;;-0.69;100.00;98816.66;5008797;28;1445;-74
2023/11/23 04:08:40;;;;;;;;;;;0.20;99.90;;;-0.56;100.00;98808.44;5004310;28;1798;-73
2023/11/23 04:11:09;;;;;;;;;;;0.30;99.90;;;-0.59;100.00;98822.81;4992228;28;1534;-72
2023/11/23 04:13:36;;;;;;;;;;;0.30;99.90;;;-0.52;100.00;98805.16;5022371;28;1551;-72
2023/11/23 04:16:03;;;;;;;;;;;0.40;99.90;;;-0.52;100.00;98800.03;5023609;28;1628;-74
2023/11/23 04:18:30;;;;;;;;;;;0.50;99.90;;;-0.48;100.00;98808.59;5023576;28;1633;-73
2023/11/23 04:20:57;;;;;;;;;;;0.50;99.90;;;-0.37;100.00;98813.94;5024259;28;1516;-72
2023/11/23 04:23:24;;;;;;;;;;;0.40;99.90;;;-0.28;100.00;98809.88;5021944;28;2068;-73
2023/11/23 04:25:51;;;;;;;;;;;0.40;99.90;;;-0.31;100.00;98808.97;5020848;28;1481;-72
2023/11/23 04:28:18;;;;;;;;;;;0.40;99.90;;;-0.32;100.00;98812.34;5024099;28;1549;-73
2023/11/23 04:30:45;;;;;;;;;;;0.50;99.90;;;-0.30;100.00;98811.53;5008736;28;1844;-74
2023/11/23 04:33:15;;;;;;;;;;;0.50;99.90;;;-0.48;100.00;98811.16;5024786;28;1458;-73
2023/11/23 04:35:41;;;;;;;;;;;0.50;99.90;;;-0.42;100.00;98812.16;5022029;28;1647;-73
2023/11/23 04:38:08;;;;;;;;;;;0.60;99.90;;;-0.33;100.00;98802.97;5007070;28;1655;-73
2023/11/23 04:40:35;;;;;;;;;;;0.70;99.90;;;-0.32;100.00;98794.47;5023954;28;1545;-73
2023/11/23 04:43:02;;;;;;;;;;;0.70;99.90;;;-0.33;100.00;98793.63;5019998;28;1988;-74
2023/11/23 04:45:29;;;;;;;;;;;0.80;99.90;;;-0.27;100.00;98791.22;5019881;28;1845;-74
2023/11/23 04:47:56;;;;;;;;;;;0.80;99.90;;;-0.35;100.00;98785.06;5006225;28;1379;-72
2023/11/23 04:50:23;;;;;;;;;;;0.80;99.90;;;-0.32;100.00;98792.81;5021062;28;1529;-73
2023/11/23 04:52:50;;;;;;;;;;;0.80;99.90;;;-0.29;100.00;98787.75;5003650;28;1610;-73
2023/11/23 04:55:17;;;;;;;;;;;0.70;99.90;;;-0.24;100.00;98795.50;5022817;28;1677;-74
2023/11/23 04:57:48;;;;;;;;;;;0.70;99.90;;;-0.18;100.00;98804.97;5022914;28;1928;-77
2023/11/23 05:00:15;;;;;;;;;;;0.70;99.90;;;-0.24;100.00;98806.56;5007691;28;1526;-74
2023/11/23 05:02:43;;;;;;;;;;;0.70;99.90;;;-0.09;100.00;98812.78;5011745;28;1987;-74
2023/11/23 05:05:13;;;;;;;;;;;0.80;99.90;;;-0.22;100.00;98798.94;5022503;28;1619;-73
2023/11/23 05:07:40;;;;;;;;;;;0.80;99.90;;;-0.26;100.00;98808.22;5007696;28;1395;-73
2023/11/23 05:10:08;;;;;;;;;;;0.80;99.90;;;-0.15;100.00;98805.03;5023954;28;1704;-74
2023/11/23 05:12:35;;;;;;;;;;;0.80;99.90;;;-0.36;100.00;98806.31;5021786;28;1442;-73
2023/11/23 05:15:03;;;;;;;;;;;0.80;99.90;;;-0.25;100.00;98821.84;5024084;28;1598;-74
2023/11/23 05:17:31;;;;;;;;;;;0.80;99.90;;;-0.10;100.00;98809.38;5005045;28;1971;-74
2023/11/23 05:19:58;;;;;;;;;;;0.70;99.90;;;-0.25;100.00;98798.88;5003324;28;1482;-73
2023/11/23 05:22:25;;;;;;;;;;;0.80;99.90;;;-0.28;100.00;98797.13;4992516;28;2023;-73
2023/11/23 05:24:52;;;;;;;;;;;0.80;99.90;;;-0.24;100.00;98798.91;5019810;28;1500;-73
2023/11/23 05:27:20;;;;;;;;;;;0.80;99.90;;;-0.09;100.00;98806.03;5005964;28;1794;-74
2023/11/23 05:29:47;;;;;;;;;;;0.80;99.90;;;-0.01;100.00;98821.47;5005770;28;1494;-75
2023/11/23 05:32:18;;;;;;;;;;;0.90;99.90;;;0.08;100.00;98823.34;5005714;28;1613;-74
2023/11/23 05:34:45;;;;;;;;;;;0.90;99.90;;;0.09;100.00;98820.84;5003248;28;1590;-76
2023/11/23 05:37:12;;;;;;;;;;;0.90;99.90;;;0.11;100.00;98811.47;4991509;28;1634;-75
2023/11/23 05:39:39;;;;;;;;;;;1.00;99.90;;;0.12;100.00;98815.78;5023060;28;1603;-74
2023/11/23 05:42:23;;;;;;;;;;;1.00;99.90;;;0.08;100.00;98805.47;5022312;28;1906;-72
2023/11/23 05:44:50;;;;;;;;;;;1.00;99.90;;;-0.07;100.00;98793.28;5012588;28;1569;-73
2023/11/23 05:47:18;;;;;;;;;;;1.00;99.90;;;-0.03;100.00;98795.06;5022747;28;1618;-75
2023/11/23 05:49:45;;;;;;;;;;;0.90;99.90;;;-0.05;100.00;98784.81;5003512;28;1559;-78
2023/11/23 05:52:12;;;;;;;;;;;0.90;99.90;;;-0.16;100.00;98791.44;5019777;28;1674;-74
2023/11/23 05:54:39;;;;;;;;;;;0.90;99.90;;;-0.05;100.00;98782.25;5003690;28;1574;-73
2023/11/23 05:57:06;;;;;;;;;;;0.90;99.90;;;-0.19;100.00;98791.34;5020176;28;1535;-72
2023/11/23 05:59:33;;;;;;;;;;;0.90;99.90;;;-0.07;100.00;98789.06;5005590;28;1948;-75
2023/11/23 06:02:02;;;;;;;;;;;0.90;99.90;;;0.02;100.00;98790.88;5020151;28;1915;-73
2023/11/23 06:04:29;;;;;;;;;;;0.90;99.90;;;-0.06;100.00;98775.44;5022387;28;1710;-75
2023/11/23 06:06:56;;;;;;;;;;;0.90;99.90;;;-0.01;100.00;98786.59;5023419;28;1546;-72
2023/11/23 06:09:23;;;;;;;;;;;0.80;99.90;;;-0.07;100.00;98790.72;5004873;28;1401;-74
2023/11/23 06:11:50;;;;;;;;;;;0.80;99.90;;;-0.05;100.00;98789.91;4999581;28;1878;-73
2023/11/23 06:14:17;;;;;;;;;;;0.90;99.90;;;-0.12;100.00;98789.78;5020028;28;1406;-74
2023/11/23 06:16:44;;;;;;;;;;;0.90;99.90;;;-0.04;100.00;98768.69;5024033;28;1520;-74
2023/11/23 06:19:11;;;;;;;;;;;1.00;99.90;;;0.04;100.00;98780.72;5021422;28;1418;-73
2023/11/23 06:21:38;;;;;;;;;;;1.00;99.90;;;0.15;100.00;98772.41;5021597;28;1473;-74
2023/11/23 06:24:06;;;;;;;;;;;1.00;99.90;;;0.20;100.00;98775.91;5020949;28;1991;-76
2023/11/23 06:26:33;;;;;;;;;;;0.90;99.90;;;0.28;100.00;98781.16;5024839;28;1124;-74
2023/11/23 06:29:00;;;;;;;;;;;0.90;99.90;;;0.23;100.00;98777.69;5022972;28;1435;-73
2023/11/23 06:31:27;;;;;;;;;;;1.00;99.90;;;0.10;100.00;98771.47;5009237;28;1400;-73
2023/11/23 06:33:54;;;;;;;;;;;1.10;99.90;;;0.19;100.00;98781.00;5022503;28;1327;-72
2023/11/23 06:36:21;;;;;;;;;;;1.10;99.90;;;0.32;100.00;98792.28;5002685;28;1018;-72
2023/11/23 06:38:49;;;;;;;;;;;1.10;99.90;;;0.33;100.00;98789.75;5020648;28;1387;-73
2023/11/23 06:41:20;;;;;;;;;;;1.10;99.90;;;0.30;100.00;98782.06;5007365;28;1288;-73
2023/11/23 06:43:48;;;;;;;;;;;1.10;99.90;;;0.30;100.00;98788.88;5019948;28;1906;-74
2023/11/23 06:46:22;;;;;;;;;;;1.20;99.90;;;0.23;100.00;98795.56;5021259;28;1075;-72
2023/11/23 06:48:48;;;;;;;;;;;1.10;99.90;;;0.14;100.00;98803.91;5019831;28;977;-73
2023/11/23 06:51:15;;;;;;;;;;;1.20;99.90;;;0.23;100.00;98810.00;5023733;28;1320;-74
2023/11/23 06:53:48;;;;;;;;;;;1.20;99.90;;;0.26;100.00;98803.25;5007703;28;1449;-72
2023/11/23 06:56:16;;;;;;;;;;;1.10;99.90;;;0.16;100.00;98797.13;5003998;28;1087;-73
2023/11/23 06:58:47;;;;;;;;;;;1.20;99.90;;;0.13;100.00;98796.19;4993674;28;1585;-74
2023/11/23 07:01:17;;;;;;;;;;;1.20;99.90;;;0.18;100.00;98807.34;5005674;28;1395;-73
2023/11/23 07:03:45;;;;;;;;;;;1.20;99.90;;;0.26;100.00;98800.72;4992723;28;2007;-73
2023/11/23 07:06:13;;;;;;;;;;;1.20;99.90;;;0.25;100.00;98810.88;5016150;28;1916;-72
2023/11/23 07:08:41;;;;;;;;;;;1.30;99.90;;;0.36;100.00;98809.38;5021817;28;1316;-73
2023/11/23 07:11:08;;;;;;;;;;;1.30;99.90;;;0.37;100.00;98808.56;5022658;28;1296;-72
2023/11/23 07:13:35;;;;;;;;;;;1.30;99.90;;;0.33;100.00;98805.09;5021019;28;1368;-74
2023/11/23 07:16:05;;;;;;;;;;;1.30;99.90;;;0.48;100.00;98788.31;5021816;28;1061;-72
2023/11/23 07:18:32;;;;;;;;;;;1.30;99.90;;;0.45;100.00;98794.22;5019603;28;1080;-72
2023/11/23 07:20:59;;;;;;;;;;;1.40;99.90;;;0.49;100.00;98790.03;5018218;28;1431;-72
2023/11/23 07:23:26;;;;;;;;;;;1.40;99.90;;;0.52;100.00;98783.25;5021843;28;1922;-72
2023/11/23 07:25:53;;;;;;;;;;;1.50;99.90;;;0.59;100.00;98786.78;5019705;28;1007;-72
2023/11/23 07:28:26;;;;;;;;;;;1.60;99.90;;;0.57;100.00;98781.69;5020171;28;1444;-73
2023/11/23 07:30:57;;;;;;;;;;;1.50;99.90;;;0.60;100.00;98775.75;5017970;28;1399;-73
2023/11/23 07:33:29;;;;;;;;;;;1.60;99.90;;;0.63;100.00;98776.66;5008418;28;1318;-72
2023/11/23 07:35:56;;;;;;;;;;;1.60;99.90;;;0.66;100.00;98773.28;5000412;28;1363;-72
2023/11/23 07:38:24;;;;;;;;;;;1.60;99.90;;;0.60;100.00;98807.25;5018435;28;1497;-72
2023/11/23 07:40:51;;;;;;;;;;;1.60;99.90;;;0.59;100.00;98803.00;5010075;28;1371;-73
2023/11/23 07:43:18;;;;;;;;;;;1.60;99.90;;;0.58;100.00;98810.63;5024335;28;1985;-73
2023/11/23 07:45:44;;;;;;;;;;;1.60;99.90;;;0.83;100.00;98804.22;5008466;28;962;-72
2023/11/23 07:48:13;;;;;;;;;;;1.60;99.90;;;0.73;100.00;98812.56;5014277;28;1532;-73
2023/11/23 07:50:43;;;;;;;;;;;1.60;99.90;;;0.76;100.00;98798.16;5026479;28;1276;-75
2023/11/23 07:53:10;;;;;;;;;;;1.60;99.90;;;0.83;100.00;98811.91;5009472;28;1358;-75
2023/11/23 07:55:37;;;;;;;;;;;1.70;99.90;;;0.77;100.00;98810.09;5027369;28;1218;-73
2023/11/23 07:58:03;;;;;;;;;;;1.80;99.90;;;0.74;100.00;98809.19;5008886;28;1453;-72
2023/11/23 08:00:30;;;;;;;;;;;1.70;99.90;;;0.78;100.00;98800.75;5030488;28;1016;-73
2023/11/23 08:02:57;;;;;;;;;;;1.80;99.90;;;0.86;100.00;98805.97;5028395;28;1987;-72
2023/11/23 08:05:25;;;;;;;;;;;1.80;99.90;;;0.82;100.00;98793.16;5026634;28;1103;-73
2023/11/23 08:07:53;;;;;;;;;;;1.80;99.90;;;0.87;100.00;98802.56;5010513;28;1977;-74
2023/11/23 08:10:20;;;;;;;;;;;1.90;99.90;;;0.83;100.00;98786.34;5026798;28;1758;-76
2023/11/23 08:12:47;;;;;;;;;;;1.80;99.90;;;0.91;100.00;98782.19;5010860;28;1426;-76
2023/11/23 08:15:14;;;;;;;;;;;1.80;99.90;;;0.82;100.00;98793.16;5027759;28;990;-73
2023/11/23 08:17:41;;;;;;;;;;;1.80;99.90;;;0.80;100.00;98788.84;5011812;28;1722;-75
2023/11/23 08:20:26;;;;;;;;;;;1.90;99.90;;;0.83;100.00;98791.44;4999881;28;1522;-72
2023/11/23 08:22:54;;;;;;;;;;;1.90;99.90;;;0.92;100.00;98808.63;5012295;28;1902;-74
2023/11/23 08:25:21;;;;;;;;;;;1.90;99.90;;;1.08;100.00;98810.59;4991549;28;1416;-75
2023/11/23 08:27:48;;;;;;;;;;;1.90;99.90;;;0.92;100.00;98795.84;5026675;28;1087;-74
2023/11/23 08:30:15;;;;;;;;;;;1.90;99.90;;;1.03;100.00;98815.63;5030370;28;1339;-72
2023/11/23 08:32:42;;;;;;;;;;;1.90;99.90;;;1.04;100.00;98796.88;5010232;28;1354;-74
2023/11/23 08:35:09;;;;;;;;;;;1.90;99.90;;;1.06;100.00;98796.06;5028686;28;1050;-74
2023/11/23 08:37:38;;;;;;;;;;;2.00;99.90;;;1.11;100.00;98794.41;5027088;28;1110;-74
2023/11/23 08:40:06;;;;;;;;;;;2.00;99.90;;;1.15;100.00;98788.53;5026799;28;1351;-73
2023/11/23 08:42:36;;;;;;;;;;;2.00;99.90;;;1.10;100.00;98797.81;4994673;28;1346;-73
2023/11/23 08:45:03;;;;;;;;;;;1.90;99.90;;;1.08;100.00;98800.34;5028350;28;1977;-73
2023/11/23 08:47:30;;;;;;;;;;;1.90;99.90;;;0.97;100.00;98799.31;5027428;28;1091;-72
2023/11/23 08:49:57;;;;;;;;;;;2.00;99.90;;;0.91;100.00;98789.00;5009740;28;1316;-73
2023/11/23 08:52:24;;;;;;;;;;;2.00;99.90;;;0.97;100.00;98789.97;5006137;28;1752;-75
2023/11/23 08:54:51;;;;;;;;;;;2.00;99.90;;;1.05;100.00;98797.75;5004081;28;1414;-73
2023/11/23 08:57:18;;;;;;;;;;;2.00;99.90;;;0.99;100.00;98795.94;5023671;28;1804;-73
2023/11/23 08:59:45;;;;;;;;;;;2.00;99.90;;;1.16;100.00;98796.19;5025185;28;1082;-72
2023/11/23 09:02:12;;;;;;;;;;;2.00;99.90;;;1.17;100.00;98791.97;5024989;28;1395;-72
2023/11/23 09:04:47;;;;;;;;;;;2.00;99.90;;;1.16;100.00;98793.63;5008408;28;1955;-75
2023/11/23 09:07:15;;;;;;;;;;;2.10;99.90;;;1.30;100.00;98791.31;4993394;28;1383;-72
2023/11/23 09:09:42;;;;;;;;;;;2.10;99.90;;;1.31;100.00;98787.03;5006041;28;1400;-75
2023/11/23 09:12:09;;;;;;;;;;;2.10;99.90;;;1.14;100.00;98789.34;5023686;28;1430;-73
2023/11/23 09:14:38;;;;;;;;;;;2.10;99.90;;;1.23;100.00;98790.34;5023100;28;1347;-72
2023/11/23 09:17:16;;;;;;;;;;;2.20;99.90;;;1.21;100.00;98784.34;5009936;28;1083;-72
2023/11/23 09:19:43;;;;;;;;;;;2.20;99.90;;;1.28;100.00;98790.41;5003122;28;1432;-72
2023/11/23 09:22:10;;;;;;;;;;;2.20;99.90;;;1.12;100.00;98803.78;5025823;28;1213;-72
2023/11/23 09:24:38;;;;;;;;;;;2.30;99.90;;;1.19;100.00;98813.31;5003975;28;1979;-75
2023/11/23 09:27:09;;;;;;;;;;;2.30;99.90;;;1.32;100.00;98810.06;5005323;28;1167;-73
2023/11/23 09:29:37;;;;;;;;;;;2.20;99.90;;;1.32;100.00;98798.97;5008066;28;1107;-73
2023/11/23 09:32:05;;;;;;;;;;;2.10;99.90;;;1.34;100.00;98803.28;5022757;28;1467;-73
2023/11/23 09:34:32;;;;;;;;;;;2.00;99.90;;;1.23;100.00;98800.59;5022252;28;1209;-76
2023/11/23 09:36:58;;;;;;;;;;;2.20;99.90;;;1.40;100.00;98793.13;5021080;28;1093;-73
2023/11/23 09:39:25;;;;;;;;;;;2.10;99.90;;;1.40;100.00;98798.25;5020933;28;1371;-73
2023/11/23 09:41:54;;;;;;;;;;;2.20;99.90;;;1.39;100.00;98801.66;5021023;28;1363;-72
2023/11/23 09:44:25;;;;;;;;;;;2.30;99.90;;;1.41;100.00;98806.78;4992851;28;1991;-74
2023/11/23 09:46:53;;;;;;;;;;;2.30;99.90;;;1.48;100.00;98812.84;5024642;28;1302;-73
2023/11/23 09:49:21;;;;;;;;;;;2.20;99.90;;;1.30;100.00;98806.66;5006902;28;1144;-73
2023/11/23 09:51:48;;;;;;;;;;;2.30;99.90;;;1.46;100.00;98797.47;5007654;28;1494;-73
2023/11/23 09:54:18;;;;;;;;;;;2.20;99.90;;;1.35;100.00;98788.81;5023465;28;1059;-72
2023/11/23 09:56:45;;;;;;;;;;;2.30;99.90;;;1.51;100.00;98802.66;5007343;28;1376;-75
2023/11/23 09:59:12;;;;;;;;;;;2.30;99.90;;;1.37;100.00;98807.56;5008186;28;1377;-72
2023/11/23 10:01:43;;;;;;;;;;;2.30;99.90;;;1.51;100.00;98798.41;4993379;28;1395;-72
2023/11/23 10:04:11;;;;;;;;;;;2.30;99.90;;;1.46;100.00;98792.38;5011376;28;1981;-75
2023/11/23 10:06:39;;;;;;;;;;;2.40;99.90;;;1.55;100.00;98792.50;5008438;28;1439;-75
2023/11/23 10:09:07;;;;;;;;;;;2.40;99.90;;;1.63;100.00;98778.06;5009583;28;1157;-72
2023/11/23 10:11:34;;;;;;;;;;;2.50;99.90;;;1.57;100.00;98780.53;5024023;28;1415;-72
2023/11/23 10:14:01;;;;;;;;;;;2.50;99.90;;;1.82;100.00;98776.56;5007287;28;1144;-73
2023/11/23 10:16:31;;;;;;;;;;;2.60;99.90;;;1.78;100.00;98761.16;4990990;28;1393;-73
2023/11/23 10:18:58;;;;;;;;;;;2.60;99.90;;;1.81;100.00;98753.53;5009267;28;2233;-72
2023/11/23 10:21:25;;;;;;;;;;;2.70;99.90;;;1.90;100.00;98740.84;5021976;28;1452;-73
2023/11/23 10:23:52;;;;;;;;;;;2.70;99.90;;;1.92;100.00;98741.72;5021113;28;1910;-75
2023/11/23 10:26:19;;;;;;;;;;;2.70;99.90;;;1.78;100.00;98744.13;5022247;28;1424;-72
2023/11/23 10:28:46;;;;;;;;;;;2.70;99.90;;;1.93;100.00;98733.19;5023184;28;1359;-76
2023/11/23 10:31:13;;;;;;;;;;;2.80;99.90;;;2.07;100.00;98736.72;5021732;28;1379;-73
2023/11/23 10:33:41;;;;;;;;;;;2.80;99.90;;;1.92;100.00;98730.63;5023912;28;1174;-75
2023/11/23 10:36:09;;;;;;;;;;;2.90;99.90;;;2.02;100.00;98732.41;5006350;28;1501;-72
2023/11/23 10:38:38;;;;;;;;;;;3.00;99.90;;;2.17;100.00;98732.56;5003818;28;1388;-74
2023/11/23 10:41:11;;;;;;;;;;;3.00;99.90;;;2.25;100.00;98720.69;4990204;28;2042;-72
2023/11/23 10:43:41;;;;;;;;;;;3.00;99.90;;;2.09;100.00;98718.81;5001969;28;1914;-73
2023/11/23 10:46:10;;;;;;;;;;;3.00;99.90;;;2.22;100.00;98723.22;4992008;28;2080;-72
2023/11/23 10:48:38;;;;;;;;;;;3.20;99.90;;;2.19;100.00;98723.22;5015123;28;1237;-73
2023/11/23 10:51:06;;;;;;;;;;;3.20;99.90;;;2.34;100.00;98712.22;5007593;28;1425;-72
2023/11/23 10:53:33;;;;;;;;;;;3.20;99.90;;;2.40;100.00;98709.72;5011642;28;1146;-73
2023/11/23 10:56:14;;;;;;;;;;;3.10;99.90;;;2.22;100.00;98695.03;5002767;28;1492;-74
2023/11/23 10:58:41;;;;;;;;;;;3.20;99.90;;;2.19;100.00;98692.47;4990464;28;1507;-73
2023/11/23 11:01:09;;;;;;;;;;;3.20;99.90;;;2.24;100.00;98698.47;4999645;28;1397;-72
2023/11/23 11:03:38;;;;;;;;;;;3.20;99.90;;;2.25;100.00;98715.56;5007770;28;1977;-73
2023/11/23 11:06:10;;;;;;;;;;;3.10;99.90;;;2.39;100.00;98700.31;5007537;28;1459;-75
2023/11/23 11:08:38;;;;;;;;;;;3.10;99.90;;;2.33;100.00;98699.38;5006857;28;1804;-72
2023/11/23 11:11:15;;;;;;;;;;;3.20;99.90;;;2.27;100.00;98703.63;5022595;28;1438;-72
2023/11/23 11:13:42;;;;;;;;;;;3.10;99.90;;;2.18;100.00;98705.25;5002481;28;1643;-76
2023/11/23 11:16:14;;;;;;;;;;;3.10;99.90;;;2.44;100.00;98687.53;5003052;28;1443;-72
2023/11/23 11:18:52;;;;;;;;;;;3.30;99.90;;;2.37;100.00;98671.25;4992520;28;1952;-73
2023/11/23 11:21:24;;;;;;;;;;;3.30;99.90;;;2.57;100.00;98657.72;5022914;28;1497;-73
2023/11/23 11:23:54;;;;;;;;;;;3.30;99.90;;;2.54;100.00;98667.97;5002797;28;1942;-72
2023/11/23 11:26:24;;;;;;;;;;;3.20;99.90;;;2.54;100.00;98668.81;5021960;28;1436;-73
2023/11/23 11:28:57;;;;;;;;;;;3.20;99.90;;;2.45;100.00;98684.13;5012229;28;1102;-73